sensor_id;sensor_type;location;lat;lon;timestamp;P1;durP1;ratioP1;P2;durP2;ratioP2
8038;SDS011;4062;49.844;8.120;2022-11-20T00:00:49;0.50;;;0.40;;
8038;SDS011;4062;49.844;8.120;2022-11-20T00:02:50;0.50;;;0.50;;
8038;SDS011;4062;49.844;8.120;2022-11-20T00:04:50;0.50;;;0.40;;
8038;SDS011;4062;49.844;8.120;2022-11-20T00:06:51;0.50;;;0.30;;
8038;SDS011;4062;49.844;8.120;2022-11-20T00:08:53;0.50;;;0.50;;
8038;SDS011;4062;49.844;8.120;2022-11-20T00:11:03;0.50;;;0.40;;
8038;SDS011;4062;49.844;8.120;2022-11-20T00:13:05;0.50;;;0.40;;
8038;SDS011;4062;49.844;8.120;2022-11-20T00:15:07;0.50;;;0.40;;
8038;SDS011;4062;49.844;8.120;2022-11-20T00:17:10;0.50;;;0.40;;
8038;SDS011;4062;49.844;8.120;2022-11-20T00:19:10;0.50;;;0.40;;
8038;SDS011;4062;49.844;8.120;2022-11-20T00:21:15;0.50;;;0.40;;
8038;SDS011;4062;49.844;8.120;2022-11-20T00:23:19;0.67;;;0.67;;
8038;SDS011;4062;49.844;8.120;2022-11-20T00:25:20;0.40;;;0.40;;
8038;SDS011;4062;49.844;8.120;2022-11-20T00:27:20;0.60;;;0.60;;
8038;SDS011;4062;49.844;8.120;2022-11-20T00:29:21;0.50;;;0.40;;
8038;SDS011;4062;49.844;8.120;2022-11-20T00:31:22;0.50;;;0.30;;
8038;SDS011;4062;49.844;8.120;2022-11-20T00:33:23;0.47;;;0.40;;
8038;SDS011;4062;49.844;8.120;2022-11-20T00:35:24;0.40;;;0.30;;
8038;SDS011;4062;49.844;8.120;2022-11-20T00:37:24;0.60;;;0.50;;
8038;SDS011;4062;49.844;8.120;2022-11-20T00:39:25;0.50;;;0.30;;
8038;SDS011;4062;49.844;8.120;2022-11-20T00:41:27;0.50;;;0.40;;
8038;SDS011;4062;49.844;8.120;2022-11-20T00:43:29;0.53;;;0.50;;
8038;SDS011;4062;49.844;8.120;2022-11-20T00:45:30;0.50;;;0.40;;
8038;SDS011;4062;49.844;8.120;2022-11-20T00:47:30;0.50;;;0.40;;
8038;SDS011;4062;49.844;8.120;2022-11-20T00:49:31;0.50;;;0.50;;
8038;SDS011;4062;49.844;8.120;2022-11-20T00:51:32;0.50;;;0.50;;
8038;SDS011;4062;49.844;8.120;2022-11-20T00:53:33;0.50;;;0.40;;
8038;SDS011;4062;49.844;8.120;2022-11-20T00:55:33;0.63;;;0.63;;
8038;SDS011;4062;49.844;8.120;2022-11-20T00:57:34;0.60;;;0.43;;
8038;SDS011;4062;49.844;8.120;2022-11-20T00:59:35;0.60;;;0.40;;
8038;SDS011;4062;49.844;8.120;2022-11-20T01:01:36;0.50;;;0.50;;
8038;SDS011;4062;49.844;8.120;2022-11-20T01:03:38;0.50;;;0.50;;
8038;SDS011;4062;49.844;8.120;2022-11-20T01:05:42;0.63;;;0.63;;
8038;SDS011;4062;49.844;8.120;2022-11-20T01:07:43;0.50;;;0.40;;
8038;SDS011;4062;49.844;8.120;2022-11-20T01:09:43;0.50;;;0.40;;
8038;SDS011;4062;49.844;8.120;2022-11-20T01:11:44;0.50;;;0.40;;
8038;SDS011;4062;49.844;8.120;2022-11-20T01:13:45;0.50;;;0.30;;
8038;SDS011;4062;49.844;8.120;2022-11-20T01:15:50;0.50;;;0.43;;
8038;SDS011;4062;49.844;8.120;2022-11-20T01:17:50;0.50;;;0.40;;
8038;SDS011;4062;49.844;8.120;2022-11-20T01:19:51;0.50;;;0.40;;
8038;SDS011;4062;49.844;8.120;2022-11-20T01:21:52;0.50;;;0.43;;
8038;SDS011;4062;49.844;8.120;2022-11-20T01:23:54;0.80;;;0.80;;
8038;SDS011;4062;49.844;8.120;2022-11-20T01:25:54;0.60;;;0.40;;
8038;SDS011;4062;49.844;8.120;2022-11-20T01:27:55;0.40;;;0.37;;
8038;SDS011;4062;49.844;8.120;2022-11-20T01:29:56;0.50;;;0.33;;
8038;SDS011;4062;49.844;8.120;2022-11-20T01:31:57;0.60;;;0.53;;
8038;SDS011;4062;49.844;8.120;2022-11-20T01:33:58;0.50;;;0.40;;
8038;SDS011;4062;49.844;8.120;2022-11-20T01:36:03;0.50;;;0.40;;
8038;SDS011;4062;49.844;8.120;2022-11-20T01:38:06;0.60;;;0.40;;
8038;SDS011;4062;49.844;8.120;2022-11-20T01:40:07;0.50;;;0.50;;
8038;SDS011;4062;49.844;8.120;2022-11-20T01:42:08;0.50;;;0.50;;
8038;SDS011;4062;49.844;8.120;2022-11-20T01:46:57;0.50;;;0.43;;
8038;SDS011;4062;49.844;8.120;2022-11-20T01:49:04;0.40;;;0.30;;
8038;SDS011;4062;49.844;8.120;2022-11-20T01:54:05;0.50;;;0.30;;
8038;SDS011;4062;49.844;8.120;2022-11-20T01:56:15;0.50;;;0.50;;
8038;SDS011;4062;49.844;8.120;2022-11-20T01:58:17;0.50;;;0.50;;
8038;SDS011;4062;49.844;8.120;2022-11-20T02:00:23;0.50;;;0.40;;
8038;SDS011;4062;49.844;8.120;2022-11-20T02:02:24;0.60;;;0.60;;
8038;SDS011;4062;49.844;8.120;2022-11-20T02:04:25;0.60;;;0.50;;
8038;SDS011;4062;49.844;8.120;2022-11-20T02:06:27;0.50;;;0.50;;
8038;SDS011;4062;49.844;8.120;2022-11-20T02:08:35;0.50;;;0.40;;
8038;SDS011;4062;49.844;8.120;2022-11-20T02:10:36;0.50;;;0.30;;
8038;SDS011;4062;49.844;8.120;2022-11-20T02:12:37;0.50;;;0.33;;
8038;SDS011;4062;49.844;8.120;2022-11-20T02:14:56;0.50;;;0.40;;
8038;SDS011;4062;49.844;8.120;2022-11-20T02:16:57;0.50;;;0.40;;
8038;SDS011;4062;49.844;8.120;2022-11-20T02:18:59;0.70;;;0.70;;
8038;SDS011;4062;49.844;8.120;2022-11-20T02:21:05;0.50;;;0.30;;
8038;SDS011;4062;49.844;8.120;2022-11-20T02:23:24;0.50;;;0.43;;
8038;SDS011;4062;49.844;8.120;2022-11-20T02:25:43;0.40;;;0.30;;
8038;SDS011;4062;49.844;8.120;2022-11-20T02:27:47;0.90;;;0.50;;
8038;SDS011;4062;49.844;8.120;2022-11-20T02:29:59;0.90;;;0.50;;
8038;SDS011;4062;49.844;8.120;2022-11-20T02:32:03;0.53;;;0.47;;
8038;SDS011;4062;49.844;8.120;2022-11-20T02:34:04;0.50;;;0.40;;
8038;SDS011;4062;49.844;8.120;2022-11-20T02:36:05;0.50;;;0.40;;
8038;SDS011;4062;49.844;8.120;2022-11-20T02:38:11;0.40;;;0.30;;
8038;SDS011;4062;49.844;8.120;2022-11-20T02:40:13;0.60;;;0.50;;
8038;SDS011;4062;49.844;8.120;2022-11-20T02:42:14;0.40;;;0.37;;
8038;SDS011;4062;49.844;8.120;2022-11-20T02:44:15;0.50;;;0.50;;
8038;SDS011;4062;49.844;8.120;2022-11-20T02:46:16;0.50;;;0.30;;
8038;SDS011;4062;49.844;8.120;2022-11-20T02:48:16;0.50;;;0.40;;
8038;SDS011;4062;49.844;8.120;2022-11-20T02:50:17;0.57;;;0.57;;
8038;SDS011;4062;49.844;8.120;2022-11-20T02:52:18;0.50;;;0.40;;
8038;SDS011;4062;49.844;8.120;2022-11-20T02:54:19;0.50;;;0.40;;
8038;SDS011;4062;49.844;8.120;2022-11-20T02:56:19;0.50;;;0.40;;
8038;SDS011;4062;49.844;8.120;2022-11-20T02:58:20;0.50;;;0.40;;
8038;SDS011;4062;49.844;8.120;2022-11-20T03:00:21;0.50;;;0.50;;
8038;SDS011;4062;49.844;8.120;2022-11-20T03:02:22;0.60;;;0.50;;
8038;SDS011;4062;49.844;8.120;2022-11-20T03:04:22;0.50;;;0.50;;
8038;SDS011;4062;49.844;8.120;2022-11-20T03:06:23;0.70;;;0.50;;
8038;SDS011;4062;49.844;8.120;2022-11-20T03:08:24;0.60;;;0.60;;
8038;SDS011;4062;49.844;8.120;2022-11-20T03:10:25;0.50;;;0.40;;
8038;SDS011;4062;49.844;8.120;2022-11-20T03:12:25;0.50;;;0.40;;
8038;SDS011;4062;49.844;8.120;2022-11-20T03:14:26;0.53;;;0.50;;
8038;SDS011;4062;49.844;8.120;2022-11-20T03:16:27;0.50;;;0.40;;
8038;SDS011;4062;49.844;8.120;2022-11-20T03:18:28;0.50;;;0.30;;
8038;SDS011;4062;49.844;8.120;2022-11-20T03:20:29;0.50;;;0.40;;
8038;SDS011;4062;49.844;8.120;2022-11-20T03:22:29;0.50;;;0.40;;
8038;SDS011;4062;49.844;8.120;2022-11-20T03:24:30;0.60;;;0.60;;
8038;SDS011;4062;49.844;8.120;2022-11-20T03:26:31;0.57;;;0.57;;
8038;SDS011;4062;49.844;8.120;2022-11-20T03:28:31;0.50;;;0.40;;
8038;SDS011;4062;49.844;8.120;2022-11-20T03:30:32;0.70;;;0.70;;
8038;SDS011;4062;49.844;8.120;2022-11-20T03:32:33;0.50;;;0.50;;
8038;SDS011;4062;49.844;8.120;2022-11-20T03:34:34;0.50;;;0.50;;
8038;SDS011;4062;49.844;8.120;2022-11-20T03:36:35;0.50;;;0.40;;
8038;SDS011;4062;49.844;8.120;2022-11-20T03:38:41;0.50;;;0.40;;
8038;SDS011;4062;49.844;8.120;2022-11-20T03:40:42;0.50;;;0.40;;
8038;SDS011;4062;49.844;8.120;2022-11-20T03:42:43;0.50;;;0.40;;
8038;SDS011;4062;49.844;8.120;2022-11-20T03:44:46;0.60;;;0.50;;
8038;SDS011;4062;49.844;8.120;2022-11-20T03:46:47;0.50;;;0.40;;
8038;SDS011;4062;49.844;8.120;2022-11-20T03:48:48;0.50;;;0.40;;
8038;SDS011;4062;49.844;8.120;2022-11-20T03:50:48;0.90;;;0.67;;
8038;SDS011;4062;49.844;8.120;2022-11-20T03:52:49;0.50;;;0.40;;
8038;SDS011;4062;49.844;8.120;2022-11-20T03:54:50;0.60;;;0.60;;
8038;SDS011;4062;49.844;8.120;2022-11-20T03:56:51;0.50;;;0.50;;
8038;SDS011;4062;49.844;8.120;2022-11-20T03:58:51;0.50;;;0.50;;
8038;SDS011;4062;49.844;8.120;2022-11-20T04:00:52;0.50;;;0.40;;
8038;SDS011;4062;49.844;8.120;2022-11-20T04:02:53;0.50;;;0.40;;
8038;SDS011;4062;49.844;8.120;2022-11-20T04:04:57;0.60;;;0.50;;
8038;SDS011;4062;49.844;8.120;2022-11-20T04:06:58;0.60;;;0.40;;
8038;SDS011;4062;49.844;8.120;2022-11-20T04:08:58;0.50;;;0.40;;
8038;SDS011;4062;49.844;8.120;2022-11-20T04:11:13;0.50;;;0.40;;
8038;SDS011;4062;49.844;8.120;2022-11-20T04:13:40;0.63;;;0.63;;
8038;SDS011;4062;49.844;8.120;2022-11-20T04:15:42;0.60;;;0.40;;
8038;SDS011;4062;49.844;8.120;2022-11-20T04:17:43;0.50;;;0.50;;
8038;SDS011;4062;49.844;8.120;2022-11-20T04:19:43;0.50;;;0.50;;
8038;SDS011;4062;49.844;8.120;2022-11-20T04:21:44;0.50;;;0.30;;
8038;SDS011;4062;49.844;8.120;2022-11-20T04:23:45;0.60;;;0.60;;
8038;SDS011;4062;49.844;8.120;2022-11-20T04:25:46;0.50;;;0.40;;
8038;SDS011;4062;49.844;8.120;2022-11-20T04:27:46;0.70;;;0.70;;
8038;SDS011;4062;49.844;8.120;2022-11-20T04:29:47;0.50;;;0.40;;
8038;SDS011;4062;49.844;8.120;2022-11-20T04:31:48;0.50;;;0.40;;
8038;SDS011;4062;49.844;8.120;2022-11-20T04:33:48;0.50;;;0.40;;
8038;SDS011;4062;49.844;8.120;2022-11-20T04:35:49;0.50;;;0.50;;
8038;SDS011;4062;49.844;8.120;2022-11-20T04:37:51;0.50;;;0.40;;
8038;SDS011;4062;49.844;8.120;2022-11-20T04:39:52;0.50;;;0.50;;
8038;SDS011;4062;49.844;8.120;2022-11-20T04:41:52;0.50;;;0.37;;
8038;SDS011;4062;49.844;8.120;2022-11-20T04:44:13;0.60;;;0.40;;
8038;SDS011;4062;49.844;8.120;2022-11-20T04:46:14;0.60;;;0.53;;
8038;SDS011;4062;49.844;8.120;2022-11-20T04:48:19;0.50;;;0.43;;
8038;SDS011;4062;49.844;8.120;2022-11-20T04:50:20;0.50;;;0.40;;
8038;SDS011;4062;49.844;8.120;2022-11-20T04:52:21;0.50;;;0.40;;
8038;SDS011;4062;49.844;8.120;2022-11-20T04:54:21;0.60;;;0.60;;
8038;SDS011;4062;49.844;8.120;2022-11-20T04:56:22;0.50;;;0.50;;
8038;SDS011;4062;49.844;8.120;2022-11-20T04:58:23;0.50;;;0.40;;
8038;SDS011;4062;49.844;8.120;2022-11-20T05:00:23;0.60;;;0.60;;
8038;SDS011;4062;49.844;8.120;2022-11-20T05:02:24;0.50;;;0.50;;
8038;SDS011;4062;49.844;8.120;2022-11-20T05:04:25;0.50;;;0.30;;
8038;SDS011;4062;49.844;8.120;2022-11-20T05:06:25;0.50;;;0.40;;
8038;SDS011;4062;49.844;8.120;2022-11-20T05:08:26;0.50;;;0.40;;
8038;SDS011;4062;49.844;8.120;2022-11-20T05:10:27;0.50;;;0.40;;
8038;SDS011;4062;49.844;8.120;2022-11-20T05:12:28;0.50;;;0.50;;
8038;SDS011;4062;49.844;8.120;2022-11-20T05:14:29;0.43;;;0.37;;
8038;SDS011;4062;49.844;8.120;2022-11-20T05:16:30;0.60;;;0.60;;
8038;SDS011;4062;49.844;8.120;2022-11-20T05:18:30;0.50;;;0.50;;
8038;SDS011;4062;49.844;8.120;2022-11-20T05:20:32;0.53;;;0.53;;
8038;SDS011;4062;49.844;8.120;2022-11-20T05:22:33;0.50;;;0.47;;
8038;SDS011;4062;49.844;8.120;2022-11-20T05:24:34;0.60;;;0.60;;
8038;SDS011;4062;49.844;8.120;2022-11-20T05:26:34;0.63;;;0.63;;
8038;SDS011;4062;49.844;8.120;2022-11-20T05:28:35;0.50;;;0.50;;
8038;SDS011;4062;49.844;8.120;2022-11-20T05:30:36;0.50;;;0.40;;
8038;SDS011;4062;49.844;8.120;2022-11-20T05:32:36;0.67;;;0.47;;
8038;SDS011;4062;49.844;8.120;2022-11-20T05:34:37;0.50;;;0.40;;
8038;SDS011;4062;49.844;8.120;2022-11-20T05:36:38;0.40;;;0.37;;
8038;SDS011;4062;49.844;8.120;2022-11-20T05:38:38;0.50;;;0.43;;
8038;SDS011;4062;49.844;8.120;2022-11-20T05:40:40;0.50;;;0.50;;
8038;SDS011;4062;49.844;8.120;2022-11-20T05:42:41;0.60;;;0.60;;
8038;SDS011;4062;49.844;8.120;2022-11-20T05:44:43;0.50;;;0.47;;
8038;SDS011;4062;49.844;8.120;2022-11-20T05:46:44;0.50;;;0.47;;
8038;SDS011;4062;49.844;8.120;2022-11-20T05:48:45;0.73;;;0.43;;
8038;SDS011;4062;49.844;8.120;2022-11-20T05:50:47;0.50;;;0.40;;
8038;SDS011;4062;49.844;8.120;2022-11-20T05:52:48;0.50;;;0.47;;
8038;SDS011;4062;49.844;8.120;2022-11-20T05:54:49;0.60;;;0.53;;
8038;SDS011;4062;49.844;8.120;2022-11-20T05:56:49;0.50;;;0.50;;
8038;SDS011;4062;49.844;8.120;2022-11-20T05:58:50;0.50;;;0.40;;
8038;SDS011;4062;49.844;8.120;2022-11-20T06:00:51;0.50;;;0.50;;
8038;SDS011;4062;49.844;8.120;2022-11-20T06:02:52;0.67;;;0.67;;
8038;SDS011;4062;49.844;8.120;2022-11-20T06:04:52;0.53;;;0.40;;
8038;SDS011;4062;49.844;8.120;2022-11-20T06:06:53;0.57;;;0.57;;
8038;SDS011;4062;49.844;8.120;2022-11-20T06:08:54;0.50;;;0.47;;
8038;SDS011;4062;49.844;8.120;2022-11-20T06:10:55;0.53;;;0.43;;
8038;SDS011;4062;49.844;8.120;2022-11-20T06:12:59;0.50;;;0.50;;
8038;SDS011;4062;49.844;8.120;2022-11-20T06:15:00;0.50;;;0.47;;
8038;SDS011;4062;49.844;8.120;2022-11-20T06:17:00;0.50;;;0.30;;
8038;SDS011;4062;49.844;8.120;2022-11-20T06:19:01;0.50;;;0.40;;
8038;SDS011;4062;49.844;8.120;2022-11-20T06:23:10;0.60;;;0.60;;
8038;SDS011;4062;49.844;8.120;2022-11-20T06:25:11;0.60;;;0.60;;
8038;SDS011;4062;49.844;8.120;2022-11-20T06:27:12;0.50;;;0.50;;
8038;SDS011;4062;49.844;8.120;2022-11-20T06:29:12;0.60;;;0.60;;
8038;SDS011;4062;49.844;8.120;2022-11-20T06:31:13;0.60;;;0.43;;
8038;SDS011;4062;49.844;8.120;2022-11-20T06:33:16;0.50;;;0.40;;
8038;SDS011;4062;49.844;8.120;2022-11-20T06:35:17;0.50;;;0.50;;
8038;SDS011;4062;49.844;8.120;2022-11-20T06:37:18;0.50;;;0.30;;
8038;SDS011;4062;49.844;8.120;2022-11-20T06:39:18;0.50;;;0.50;;
8038;SDS011;4062;49.844;8.120;2022-11-20T06:41:20;0.60;;;0.60;;
8038;SDS011;4062;49.844;8.120;2022-11-20T06:43:22;0.60;;;0.57;;
8038;SDS011;4062;49.844;8.120;2022-11-20T06:45:24;0.50;;;0.50;;
8038;SDS011;4062;49.844;8.120;2022-11-20T06:47:24;0.60;;;0.60;;
8038;SDS011;4062;49.844;8.120;2022-11-20T06:49:25;0.50;;;0.50;;
8038;SDS011;4062;49.844;8.120;2022-11-20T06:51:26;0.70;;;0.70;;
8038;SDS011;4062;49.844;8.120;2022-11-20T06:53:26;0.50;;;0.50;;
8038;SDS011;4062;49.844;8.120;2022-11-20T06:55:27;0.90;;;0.67;;
8038;SDS011;4062;49.844;8.120;2022-11-20T06:57:28;0.60;;;0.40;;
8038;SDS011;4062;49.844;8.120;2022-11-20T06:59:28;0.50;;;0.47;;
8038;SDS011;4062;49.844;8.120;2022-11-20T07:01:29;0.60;;;0.40;;
8038;SDS011;4062;49.844;8.120;2022-11-20T07:03:30;0.50;;;0.50;;
8038;SDS011;4062;49.844;8.120;2022-11-20T07:05:31;0.50;;;0.40;;
8038;SDS011;4062;49.844;8.120;2022-11-20T07:07:32;0.50;;;0.50;;
8038;SDS011;4062;49.844;8.120;2022-11-20T07:09:33;0.50;;;0.40;;
8038;SDS011;4062;49.844;8.120;2022-11-20T07:11:33;0.50;;;0.40;;
8038;SDS011;4062;49.844;8.120;2022-11-20T07:13:34;0.50;;;0.40;;
8038;SDS011;4062;49.844;8.120;2022-11-20T07:15:35;0.63;;;0.63;;
8038;SDS011;4062;49.844;8.120;2022-11-20T07:17:36;0.50;;;0.40;;
8038;SDS011;4062;49.844;8.120;2022-11-20T07:19:36;0.50;;;0.50;;
8038;SDS011;4062;49.844;8.120;2022-11-20T07:21:37;0.50;;;0.50;;
8038;SDS011;4062;49.844;8.120;2022-11-20T07:23:40;0.50;;;0.40;;
8038;SDS011;4062;49.844;8.120;2022-11-20T07:25:40;0.50;;;0.40;;
8038;SDS011;4062;49.844;8.120;2022-11-20T07:27:41;0.50;;;0.40;;
8038;SDS011;4062;49.844;8.120;2022-11-20T07:29:42;0.57;;;0.50;;
8038;SDS011;4062;49.844;8.120;2022-11-20T07:31:42;0.57;;;0.57;;
8038;SDS011;4062;49.844;8.120;2022-11-20T07:33:43;0.57;;;0.57;;
8038;SDS011;4062;49.844;8.120;2022-11-20T07:35:45;0.50;;;0.40;;
8038;SDS011;4062;49.844;8.120;2022-11-20T07:37:46;0.53;;;0.53;;
8038;SDS011;4062;49.844;8.120;2022-11-20T07:39:48;0.60;;;0.50;;
8038;SDS011;4062;49.844;8.120;2022-11-20T07:41:49;0.53;;;0.53;;
8038;SDS011;4062;49.844;8.120;2022-11-20T07:43:49;0.50;;;0.47;;
8038;SDS011;4062;49.844;8.120;2022-11-20T07:45:50;0.50;;;0.43;;
8038;SDS011;4062;49.844;8.120;2022-11-20T07:47:51;0.50;;;0.50;;
8038;SDS011;4062;49.844;8.120;2022-11-20T07:49:51;0.50;;;0.50;;
8038;SDS011;4062;49.844;8.120;2022-11-20T07:51:52;0.67;;;0.67;;
8038;SDS011;4062;49.844;8.120;2022-11-20T07:53:53;0.50;;;0.50;;
8038;SDS011;4062;49.844;8.120;2022-11-20T07:55:54;0.50;;;0.43;;
8038;SDS011;4062;49.844;8.120;2022-11-20T07:57:55;0.50;;;0.47;;
8038;SDS011;4062;49.844;8.120;2022-11-20T07:59:57;0.70;;;0.70;;
8038;SDS011;4062;49.844;8.120;2022-11-20T08:01:58;0.60;;;0.50;;
8038;SDS011;4062;49.844;8.120;2022-11-20T08:03:58;0.50;;;0.40;;
8038;SDS011;4062;49.844;8.120;2022-11-20T08:05:59;0.50;;;0.43;;
8038;SDS011;4062;49.844;8.120;2022-11-20T08:08:02;0.50;;;0.40;;
8038;SDS011;4062;49.844;8.120;2022-11-20T08:10:02;0.57;;;0.57;;
8038;SDS011;4062;49.844;8.120;2022-11-20T08:12:03;0.90;;;0.90;;
8038;SDS011;4062;49.844;8.120;2022-11-20T08:14:23;0.53;;;0.50;;
8038;SDS011;4062;49.844;8.120;2022-11-20T08:16:24;0.70;;;0.70;;
8038;SDS011;4062;49.844;8.120;2022-11-20T08:18:25;0.50;;;0.40;;
8038;SDS011;4062;49.844;8.120;2022-11-20T08:20:25;0.50;;;0.50;;
8038;SDS011;4062;49.844;8.120;2022-11-20T08:22:26;0.50;;;0.40;;
8038;SDS011;4062;49.844;8.120;2022-11-20T08:24:27;0.60;;;0.60;;
8038;SDS011;4062;49.844;8.120;2022-11-20T08:26:27;0.50;;;0.43;;
8038;SDS011;4062;49.844;8.120;2022-11-20T08:28:29;0.50;;;0.40;;
8038;SDS011;4062;49.844;8.120;2022-11-20T08:30:29;0.70;;;0.70;;
8038;SDS011;4062;49.844;8.120;2022-11-20T08:32:30;0.50;;;0.50;;
8038;SDS011;4062;49.844;8.120;2022-11-20T08:34:31;0.60;;;0.60;;
8038;SDS011;4062;49.844;8.120;2022-11-20T08:36:32;0.63;;;0.50;;
8038;SDS011;4062;49.844;8.120;2022-11-20T08:38:34;0.57;;;0.57;;
8038;SDS011;4062;49.844;8.120;2022-11-20T08:40:35;0.60;;;0.60;;
8038;SDS011;4062;49.844;8.120;2022-11-20T08:42:36;0.50;;;0.50;;
8038;SDS011;4062;49.844;8.120;2022-11-20T08:44:37;0.50;;;0.50;;
8038;SDS011;4062;49.844;8.120;2022-11-20T08:46:38;0.50;;;0.40;;
8038;SDS011;4062;49.844;8.120;2022-11-20T08:48:41;0.50;;;0.40;;
8038;SDS011;4062;49.844;8.120;2022-11-20T08:50:42;0.50;;;0.50;;
8038;SDS011;4062;49.844;8.120;2022-11-20T08:52:44;1.47;;;0.70;;
8038;SDS011;4062;49.844;8.120;2022-11-20T08:54:44;0.60;;;0.60;;
8038;SDS011;4062;49.844;8.120;2022-11-20T08:56:45;0.50;;;0.43;;
8038;SDS011;4062;49.844;8.120;2022-11-20T08:58:46;0.50;;;0.40;;
8038;SDS011;4062;49.844;8.120;2022-11-20T09:00:46;0.70;;;0.70;;
8038;SDS011;4062;49.844;8.120;2022-11-20T09:02:47;0.70;;;0.70;;
8038;SDS011;4062;49.844;8.120;2022-11-20T09:04:48;0.60;;;0.60;;
8038;SDS011;4062;49.844;8.120;2022-11-20T09:06:49;0.70;;;0.50;;
8038;SDS011;4062;49.844;8.120;2022-11-20T09:08:53;0.77;;;0.77;;
8038;SDS011;4062;49.844;8.120;2022-11-20T09:10:54;0.70;;;0.50;;
8038;SDS011;4062;49.844;8.120;2022-11-20T09:12:57;0.50;;;0.50;;
8038;SDS011;4062;49.844;8.120;2022-11-20T09:14:58;0.40;;;0.40;;
8038;SDS011;4062;49.844;8.120;2022-11-20T09:16:59;0.67;;;0.67;;
8038;SDS011;4062;49.844;8.120;2022-11-20T09:19:00;0.70;;;0.50;;
8038;SDS011;4062;49.844;8.120;2022-11-20T09:21:01;0.60;;;0.57;;
8038;SDS011;4062;49.844;8.120;2022-11-20T09:23:05;0.50;;;0.40;;
8038;SDS011;4062;49.844;8.120;2022-11-20T09:25:06;0.53;;;0.53;;
8038;SDS011;4062;49.844;8.120;2022-11-20T09:27:07;0.60;;;0.60;;
8038;SDS011;4062;49.844;8.120;2022-11-20T09:29:08;0.60;;;0.57;;
8038;SDS011;4062;49.844;8.120;2022-11-20T09:31:21;0.80;;;0.60;;
8038;SDS011;4062;49.844;8.120;2022-11-20T09:33:25;0.50;;;0.40;;
8038;SDS011;4062;49.844;8.120;2022-11-20T09:35:26;0.53;;;0.53;;
8038;SDS011;4062;49.844;8.120;2022-11-20T09:37:27;0.50;;;0.40;;
8038;SDS011;4062;49.844;8.120;2022-11-20T09:39:28;0.60;;;0.60;;
8038;SDS011;4062;49.844;8.120;2022-11-20T09:44:19;0.80;;;0.80;;
8038;SDS011;4062;49.844;8.120;2022-11-20T09:46:29;0.70;;;0.70;;
8038;SDS011;4062;49.844;8.120;2022-11-20T09:48:55;0.50;;;0.43;;
8038;SDS011;4062;49.844;8.120;2022-11-20T09:54:06;0.50;;;0.50;;
8038;SDS011;4062;49.844;8.120;2022-11-20T09:56:18;0.40;;;0.30;;
8038;SDS011;4062;49.844;8.120;2022-11-20T09:58:31;1.10;;;0.70;;
8038;SDS011;4062;49.844;8.120;2022-11-20T10:00:41;0.47;;;0.33;;
8038;SDS011;4062;49.844;8.120;2022-11-20T10:02:52;0.50;;;0.43;;
8038;SDS011;4062;49.844;8.120;2022-11-20T10:07:30;0.57;;;0.50;;
8038;SDS011;4062;49.844;8.120;2022-11-20T10:09:57;0.57;;;0.57;;
8038;SDS011;4062;49.844;8.120;2022-11-20T10:29:36;0.50;;;0.40;;
8038;SDS011;4062;49.844;8.120;2022-11-20T10:31:40;0.60;;;0.60;;
8038;SDS011;4062;49.844;8.120;2022-11-20T10:33:53;0.50;;;0.40;;
8038;SDS011;4062;49.844;8.120;2022-11-20T10:36:05;0.60;;;0.60;;
8038;SDS011;4062;49.844;8.120;2022-11-20T10:38:26;0.50;;;0.43;;
8038;SDS011;4062;49.844;8.120;2022-11-20T10:40:40;0.57;;;0.57;;
8038;SDS011;4062;49.844;8.120;2022-11-20T10:47:24;0.70;;;0.70;;
8038;SDS011;4062;49.844;8.120;2022-11-20T10:49:27;0.50;;;0.50;;
8038;SDS011;4062;49.844;8.120;2022-11-20T10:51:35;0.50;;;0.40;;
8038;SDS011;4062;49.844;8.120;2022-11-20T10:56:46;0.50;;;0.40;;
8038;SDS011;4062;49.844;8.120;2022-11-20T11:01:38;1.10;;;1.10;;
8038;SDS011;4062;49.844;8.120;2022-11-20T11:03:42;0.50;;;0.50;;
8038;SDS011;4062;49.844;8.120;2022-11-20T11:05:50;0.50;;;0.50;;
8038;SDS011;4062;49.844;8.120;2022-11-20T11:08:02;0.50;;;0.40;;
8038;SDS011;4062;49.844;8.120;2022-11-20T11:12:43;0.50;;;0.40;;
8038;SDS011;4062;49.844;8.120;2022-11-20T11:16:51;0.60;;;0.50;;
8038;SDS011;4062;49.844;8.120;2022-11-20T11:19:04;0.60;;;0.60;;
8038;SDS011;4062;49.844;8.120;2022-11-20T11:21:12;0.60;;;0.60;;
8038;SDS011;4062;49.844;8.120;2022-11-20T11:23:38;0.70;;;0.70;;
8038;SDS011;4062;49.844;8.120;2022-11-20T11:25:41;0.50;;;0.50;;
8038;SDS011;4062;49.844;8.120;2022-11-20T11:27:48;0.50;;;0.40;;
8038;SDS011;4062;49.844;8.120;2022-11-20T11:29:50;0.60;;;0.50;;
8038;SDS011;4062;49.844;8.120;2022-11-20T11:32:17;0.63;;;0.63;;
8038;SDS011;4062;49.844;8.120;2022-11-20T11:34:21;0.60;;;0.60;;
8038;SDS011;4062;49.844;8.120;2022-11-20T11:36:22;0.53;;;0.53;;
8038;SDS011;4062;49.844;8.120;2022-11-20T11:38:29;0.50;;;0.43;;
8038;SDS011;4062;49.844;8.120;2022-11-20T11:40:36;0.50;;;0.40;;
8038;SDS011;4062;49.844;8.120;2022-11-20T11:42:43;0.70;;;0.70;;
8038;SDS011;4062;49.844;8.120;2022-11-20T11:44:52;0.53;;;0.50;;
8038;SDS011;4062;49.844;8.120;2022-11-20T11:47:08;0.70;;;0.70;;
8038;SDS011;4062;49.844;8.120;2022-11-20T11:49:31;0.57;;;0.50;;
8038;SDS011;4062;49.844;8.120;2022-11-20T11:51:34;0.50;;;0.50;;
8038;SDS011;4062;49.844;8.120;2022-11-20T11:53:55;0.50;;;0.40;;
8038;SDS011;4062;49.844;8.120;2022-11-20T11:56:04;0.50;;;0.40;;
8038;SDS011;4062;49.844;8.120;2022-11-20T11:58:16;0.70;;;0.70;;
8038;SDS011;4062;49.844;8.120;2022-11-20T12:00:54;0.60;;;0.60;;
8038;SDS011;4062;49.844;8.120;2022-11-20T12:03:34;0.53;;;0.53;;
8038;SDS011;4062;49.844;8.120;2022-11-20T12:07:47;0.50;;;0.43;;
8038;SDS011;4062;49.844;8.120;2022-11-20T12:09:54;0.50;;;0.40;;
8038;SDS011;4062;49.844;8.120;2022-11-20T12:12:08;0.60;;;0.60;;
8038;SDS011;4062;49.844;8.120;2022-11-20T12:16:37;0.50;;;0.50;;
8038;SDS011;4062;49.844;8.120;2022-11-20T12:18:39;0.90;;;0.90;;
8038;SDS011;4062;49.844;8.120;2022-11-20T12:20:44;0.57;;;0.57;;
8038;SDS011;4062;49.844;8.120;2022-11-20T12:23:40;0.70;;;0.70;;
8038;SDS011;4062;49.844;8.120;2022-11-20T12:28:57;1.20;;;1.20;;
8038;SDS011;4062;49.844;8.120;2022-11-20T12:31:24;0.67;;;0.67;;
8038;SDS011;4062;49.844;8.120;2022-11-20T12:36:27;0.57;;;0.50;;
8038;SDS011;4062;49.844;8.120;2022-11-20T12:41:09;0.50;;;0.40;;
8038;SDS011;4062;49.844;8.120;2022-11-20T12:46:37;0.50;;;0.50;;
8038;SDS011;4062;49.844;8.120;2022-11-20T12:54:21;0.60;;;0.60;;
8038;SDS011;4062;49.844;8.120;2022-11-20T12:56:49;0.70;;;0.57;;
8038;SDS011;4062;49.844;8.120;2022-11-20T13:01:30;0.60;;;0.60;;
8038;SDS011;4062;49.844;8.120;2022-11-20T13:03:48;0.60;;;0.60;;
8038;SDS011;4062;49.844;8.120;2022-11-20T13:08:29;0.70;;;0.50;;
8038;SDS011;4062;49.844;8.120;2022-11-20T13:10:38;0.50;;;0.40;;
8038;SDS011;4062;49.844;8.120;2022-11-20T13:12:56;0.50;;;0.40;;
8038;SDS011;4062;49.844;8.120;2022-11-20T13:18:06;0.50;;;0.50;;
8038;SDS011;4062;49.844;8.120;2022-11-20T13:20:14;0.50;;;0.50;;
8038;SDS011;4062;49.844;8.120;2022-11-20T13:22:28;0.70;;;0.70;;
8038;SDS011;4062;49.844;8.120;2022-11-20T13:24:49;0.50;;;0.50;;
8038;SDS011;4062;49.844;8.120;2022-11-20T13:29:19;0.50;;;0.40;;
8038;SDS011;4062;49.844;8.120;2022-11-20T13:31:32;0.70;;;0.70;;
8038;SDS011;4062;49.844;8.120;2022-11-20T13:33:36;4.43;;;1.20;;
8038;SDS011;4062;49.844;8.120;2022-11-20T13:35:41;2.83;;;1.70;;
8038;SDS011;4062;49.844;8.120;2022-11-20T13:37:42;2.17;;;2.07;;
8038;SDS011;4062;49.844;8.120;2022-11-20T13:39:44;1.40;;;1.30;;
8038;SDS011;4062;49.844;8.120;2022-11-20T13:41:53;1.07;;;1.07;;
8038;SDS011;4062;49.844;8.120;2022-11-20T13:44:43;1.20;;;1.20;;
8038;SDS011;4062;49.844;8.120;2022-11-20T13:46:48;1.37;;;1.23;;
8038;SDS011;4062;49.844;8.120;2022-11-20T13:48:48;1.40;;;1.30;;
8038;SDS011;4062;49.844;8.120;2022-11-20T13:56:21;1.30;;;1.10;;
8038;SDS011;4062;49.844;8.120;2022-11-20T13:59:09;1.23;;;0.97;;
8038;SDS011;4062;49.844;8.120;2022-11-20T14:01:31;1.47;;;1.47;;
8038;SDS011;4062;49.844;8.120;2022-11-20T14:03:34;0.90;;;0.90;;
8038;SDS011;4062;49.844;8.120;2022-11-20T14:05:36;1.30;;;1.20;;
8038;SDS011;4062;49.844;8.120;2022-11-20T14:07:40;1.20;;;1.00;;
8038;SDS011;4062;49.844;8.120;2022-11-20T14:09:49;1.43;;;1.20;;
8038;SDS011;4062;49.844;8.120;2022-11-20T14:11:54;1.50;;;1.40;;
8038;SDS011;4062;49.844;8.120;2022-11-20T14:14:13;1.90;;;1.37;;
8038;SDS011;4062;49.844;8.120;2022-11-20T14:16:20;1.00;;;1.00;;
8038;SDS011;4062;49.844;8.120;2022-11-20T14:18:22;2.37;;;1.30;;